Share

Lagorce, France

7:35 AM CEST on April 25, 2014 (GMT +0200)
IBARONBA2 Elev 226 ft | 44.83 °N, 0.32 °W | Change Station

Current weather conditions updated 2 seconds ago

Clear
Clear
50.0 °F
Feels Like 50.0 °F
N
1.6
Wind Variable Wind from West
Gusts 1.6 mph
Sunrise 6:59 AM
Sunset 8:58 PM
Moon Waning Crescent

Today is forecast to be Warmer than yesterday. Afternoon showers.

Pressure 29.98 in
Visibility 6.2 miles
Clouds
Dew Point 49 °F
Humidity 95%
Rainfall 8.04 in
Snow Depth Not available.
UV Not available.
Pollen Not available.
Air Quality Not available.
Flu Activity Not available.
METAR LFBD 250530Z AUTO 25006KT 9999 NSC 10/09 Q1015

More Conditions Fewer Conditions

Pressure 29.98 in
Visibility 6.2 miles
Clouds
Dew Point 49 °F
Humidity 95%
Rainfall 8.04 in
Snow Depth Not available.
UV Not available.
Pollen Not available.
Air Quality Not available.
Flu Activity Not available.
METAR LFBD 250530Z AUTO 25006KT 9999 NSC 10/09 Q1015

More Conditions Fewer Conditions

10-Day Weather Forecast

Almanac

Astronomy

Apr. 25, 2014 Rise Set
Actual Time 6:59 AM CEST 8:58 PM CEST
Civil Twilight 6:27 AM CEST 9:30 PM CEST
Nautical Twilight 5:48 AM CEST 10:09 PM CEST
Astronomical Twilight 5:06 AM CEST 10:52 PM CEST
Moon 4:50 AM CEST 4:53 PM CEST
Length of Visible Light 15h 02m
Length of Day
13h 59m
Tomorrow will be 2m 52s longer.
Waning Crescent, 19% of the Moon is Illuminated
Today
Waning Crescent
Apr 29
New
May 6
First Quarter
May 14
Full
May 21
Last Quarter

Yesterday's Extremes

Country Highs Country Lows

Community

  • Deer in evening light
    Deer in evening light
  • Critter
    Critter
  • Jone Runs Falls
    Jone Runs Falls
  • Easter in Shenandoah National Park
    Easter in Shenandoah National Park
  • Sunset at Apalachicola Bay, Florida
    Sunset at Apalachicola Bay, Florida

WunderPhotos

Upload Photos

1,704,861 photos uploaded!

WunderBlogs® & News

Nearby

Snow Depth

Not available.

Coastal Water Temperatures

Place Temperature
No Stations Reporting

Earthquake Activity

City Distance Mag. Time & Date
No recent earthquake activity has been reported nearby.
Minimum magnitude displayed is 2.5.

Nearby Weather Stations

Station Location Temp. Windchill Dew Point Humidity Wind Precip. Elev Updated Type
Baron 50.0 °F - 49 °F 95% West  at  1.6 mph 0.00 in / hr 226 ft 7:35 AM CEST Rapid Fire
Camping Du Vieux Chateau, Rauzan 49.6 °F 50 °F 49 °F 98% SSW  at  0.0 mph 0.00 in / hr 154 ft 7:30 AM CEST Normal
Artigues, Artigues 1.6 °F 2 °F 48 °F 86% West  at  0.0 mph 0.00 in / hr 197 ft 7:30 AM CEST Normal
Frontenac (Gironde), Frontenac 49.6 °F 50 °F 49 °F 98% West  at  1.0 mph 0.00 in / hr 266 ft 7:35 AM CEST Rapid Fire
Bordeaux Maritime, Bordeaux 51.6 °F - 48 °F 87% NW  at  3.4 mph 0.00 in / hr 33 ft 7:35 AM CEST Rapid Fire

Show More Stations Show Fewer Stations

What do you think?

We're not finished. Please let us know what you like, what you don't like, and what you are still missing.